KRDU

Raleigh-Durham International Airport

Raleigh/Durham, North Carolina, USA
KRDU 151216Z 1512/1612 00000KT P6SM SKC FM151300 VRB02KT P6SM FEW050 FEW100 FEW250 FM160900 00000KT 4SM BR SKC
Issued Valid From Valid To
Aug-15 @ 12:16 UTC
(25 minutes ago)
Aug-15 @ 12:00 UTC
(41 minutes ago)
Aug-16 @ 12:00 UTC
(in 23 hours)
Aug-15 @ 12:00 to Aug-15 @ 13:00
KRDU 151216Z 1512/1612 00000KT P6SM SKC
Visibility Clouds
Greater than 6 miles
  • Clear skies
From Aug-15 @ 13:00 to Aug-16 @ 09:00
FM151300 VRB02KT P6SM FEW050 FEW100 FEW250
Wind Visibility Clouds
Variable at 2 knots Greater than 6 miles
  • Few at 5,000' AGL
  • Few at 10,000' AGL
  • Few at 25,000' AGL
From Aug-16 @ 09:00 to Aug-16 @ 12:00
FM160900 00000KT 4SM BR SKC
Visibility Clouds Conditions
4 miles
  • Clear skies
  • Mist
KRDU 151216Z 1512/1612 00000KT P6SM SKC FM151300 VRB02KT P6SM FEW050 FEW100 FEW250 FM160900 00000KT 4SM BR SKC
Issued Aug-15 @ 12:16 UTC
(25 minutes ago)
Valid From Aug-15 @ 12:00 UTC
(41 minutes ago)
Valid To Aug-16 @ 12:00 UTC
(in 23 hours)
Aug-15 @ 12:00 - Aug-15 @ 13:00
Clouds
  • Clear skies
From Aug-15 @ 13:00 - Aug-16 @ 09:00
Wind Visibility
Variable at 2 knots Greater than 6 miles
Clouds
  • Few at 5,000' AGL
  • Few at 10,000' AGL
  • Few at 25,000' AGL
From Aug-16 @ 09:00 - Aug-16 @ 12:00
Clouds
  • Clear skies
Conditions
  • Mist